YSNW/NOA METAR and TAF weather

Enter ICAO airport designator
Station Type Date Time Source
YSNW METAR 2022/09/24 07:19 UTC NOAA

YSNW 240719Z AUTO 26002KT 9000 -SHRA SCT037 BKN046 BKN060 14/13 Q1011


Station Type Date Time Source
YSNW Decoded METAR 2022/09/24 07:19 UTC NOAA

Nowra Ran Air Station, Australia (YSNW) 34-57S 150-32E 110M
Sep 24, 2022 - 03:19 AM EDT / 2022.09.24 0719 UTC
Wind: from the W (260 degrees) at 2 MPH (2 KT):0
Visibility: 5 mile(s):0
Sky conditions: mostly cloudy
Weather: light rain showers
Temperature: 57 F (14 C)
Dew Point: 55 F (13 C)
Relative Humidity: 93%
Pressure (altimeter): 29.85 in. Hg (1011 hPa)
ob: YSNW 240719Z AUTO 26002KT 9000 -SHRA SCT037 BKN046 BKN060 14/13 Q1011
cycle: 7

Station Type Date Time Source
YSNW TAF UTC NOAA

Error!

Example: see airport list